createdAt,value
2019-01-26T00:00:02.905Z,26.93
2019-01-26T00:01:03.572Z,30.17
2019-01-26T00:02:03.250Z,32.22
2019-01-26T00:03:02.648Z,32.22
2019-01-26T00:04:02.939Z,29.78
2019-01-26T00:05:03.184Z,33.24
2019-01-26T00:06:03.493Z,33.24
2019-01-26T00:07:03.621Z,26.39
2019-01-26T00:08:02.758Z,26.39
2019-01-26T00:09:03.095Z,33.47
2019-01-26T00:10:03.396Z,33.47
2019-01-26T00:11:03.223Z,30.32
2019-01-26T00:12:02.943Z,30.32
2019-01-26T00:13:03.084Z,27.72
2019-01-26T00:14:02.816Z,26.99
2019-01-26T00:15:02.935Z,25.86
2019-01-26T00:16:02.666Z,28.41
2019-01-26T00:17:02.807Z,26.22
2019-01-26T00:18:03.221Z,27.75
2019-01-26T00:19:03.209Z,29.52
2019-01-26T00:20:02.607Z,30.39
2019-01-26T00:21:03.091Z,26.09
2019-01-26T00:22:02.632Z,28.31
2019-01-26T00:23:03.344Z,31.71
2019-01-26T00:24:03.438Z,31.71
2019-01-26T00:26:03.427Z,25.17
2019-01-26T00:27:03.479Z,24.1
2019-01-26T00:28:02.660Z,27.04
2019-01-26T00:29:02.762Z,33.24
2019-01-26T00:30:03.185Z,33.24
2019-01-26T00:31:03.115Z,31.71
2019-01-26T00:32:03.214Z,31.71
2019-01-26T00:33:03.079Z,31.71
2019-01-26T00:34:03.032Z,34.61
2019-01-26T00:35:03.145Z,29.79
2019-01-26T00:36:02.581Z,29.79
2019-01-26T00:37:02.041Z,31.5
2019-01-26T00:38:03.265Z,30.66
2019-01-26T00:39:03.305Z,30.78
2019-01-26T00:40:03.274Z,31.45
2019-01-26T00:41:03.441Z,31.45
2019-01-26T00:42:03.525Z,25.71
2019-01-26T00:43:03.489Z,30.96
2019-01-26T00:44:03.064Z,31.18
2019-01-26T00:45:03.495Z,31.18
2019-01-26T00:46:02.782Z,29.78
2019-01-26T00:47:02.945Z,30.71
2019-01-26T00:48:03.269Z,32.05
2019-01-26T00:49:03.452Z,32.05
2019-01-26T00:50:03.348Z,31.24
2019-01-26T00:51:03.063Z,31.24
2019-01-26T00:52:02.887Z,29.41
2019-01-26T00:53:03.084Z,29.41
2019-01-26T00:54:03.192Z,28.18
2019-01-26T00:55:02.900Z,28.18
2019-01-26T00:56:02.791Z,31.64
2019-01-26T00:57:02.942Z,36.12
2019-01-26T00:58:02.576Z,35.07
2019-01-26T00:59:03.460Z,30.01
2019-01-26T01:00:03.405Z,32.17
2019-01-26T01:01:02.930Z,28.82
2019-01-26T01:02:03.279Z,32.87
2019-01-26T01:03:03.308Z,33.9
2019-01-26T01:04:02.833Z,35.06
2019-01-26T01:05:02.937Z,45.01
2019-01-26T01:06:03.192Z,36.42
2019-01-26T01:07:03.342Z,36.47
2019-01-26T01:08:03.477Z,35.26
2019-01-26T01:09:02.683Z,35.26
2019-01-26T01:10:03.165Z,29.54
2019-01-26T01:11:03.336Z,35.15
2019-01-26T01:12:02.852Z,33.34
2019-01-26T01:13:02.900Z,36.62
2019-01-26T01:14:03.518Z,32.23
2019-01-26T01:15:03.595Z,32.23
2019-01-26T01:16:02.818Z,38.54
2019-01-26T01:17:03.392Z,38.54
2019-01-26T01:18:02.975Z,35.93
2019-01-26T01:19:03.220Z,34.56
2019-01-26T01:20:03.798Z,34.56
2019-01-26T01:21:02.788Z,44.06
2019-01-26T01:22:02.941Z,44.06
2019-01-26T01:23:03.450Z,39.7
2019-01-26T01:24:01.755Z,39.74
2019-01-26T01:25:02.623Z,37.35
2019-01-26T01:26:04.148Z,37.35
2019-01-26T01:27:03.386Z,39.44
2019-01-26T01:28:03.081Z,40.85
2019-01-26T01:29:02.816Z,35.7
2019-01-26T01:30:03.297Z,37.86
2019-01-26T01:31:03.570Z,39.11
2019-01-26T01:32:02.980Z,39.11
2019-01-26T01:33:03.395Z,47.15
2019-01-26T01:34:03.055Z,38.56
2019-01-26T01:35:03.325Z,42.48
2019-01-26T01:36:03.565Z,41.51
2019-01-26T01:37:03.154Z,39.96
2019-01-26T01:38:03.397Z,39.96
2019-01-26T01:39:03.477Z,59.14
2019-01-26T01:40:03.768Z,34.58
2019-01-26T01:41:03.303Z,34.58
2019-01-26T01:42:03.369Z,39.5
2019-01-26T01:43:02.992Z,44.21
2019-01-26T01:44:03.353Z,42.91
2019-01-26T01:45:02.098Z,43.44
2019-01-26T01:46:01.942Z,46.69
2019-01-26T01:47:02.188Z,42.39
2019-01-26T01:48:03.302Z,39.19
2019-01-26T01:49:02.977Z,39.15
2019-01-26T01:50:03.296Z,39.15
2019-01-26T01:51:03.329Z,43.43
2019-01-26T01:52:03.438Z,42.58
2019-01-26T01:53:03.260Z,40.53
2019-01-26T01:54:02.854Z,40.53
2019-01-26T01:55:02.909Z,43.06
2019-01-26T01:56:02.971Z,43.06
2019-01-26T01:57:02.783Z,52.84
2019-01-26T01:58:03.477Z,36.94
2019-01-26T01:59:03.364Z,49.15
2019-01-26T02:00:03.485Z,49.15
2019-01-26T02:01:03.215Z,43.73
2019-01-26T02:02:02.808Z,43.73
2019-01-26T02:03:03.571Z,38.5
2019-01-26T02:04:03.105Z,35.61
2019-01-26T02:05:03.638Z,35.61
2019-01-26T02:06:02.398Z,42.57
2019-01-26T02:07:03.077Z,42.57
2019-01-26T02:08:03.719Z,38.69
2019-01-26T02:09:03.246Z,38.19
2019-01-26T02:10:03.499Z,38.19
2019-01-26T02:11:03.145Z,41.51
2019-01-26T02:12:03.465Z,41.99
2019-01-26T02:13:02.820Z,41.64
2019-01-26T02:14:02.699Z,37.34
2019-01-26T02:15:02.933Z,39.31
2019-01-26T02:16:02.652Z,37.69
2019-01-26T02:17:03.405Z,42.06
2019-01-26T02:18:02.838Z,42.06
2019-01-26T02:19:03.179Z,35.7
2019-01-26T02:20:03.529Z,36.61
2019-01-26T02:21:03.356Z,36.61
2019-01-26T02:22:02.945Z,37.69
2019-01-26T02:23:03.471Z,40.84
2019-01-26T02:24:03.147Z,37.98
2019-01-26T02:25:03.180Z,38.8
2019-01-26T02:26:02.648Z,40.91
2019-01-26T02:27:03.012Z,41.79
2019-01-26T02:28:01.769Z,36.48
2019-01-26T02:29:03.565Z,44.95
2019-01-26T02:30:03.430Z,32.73
2019-01-26T02:31:03.080Z,37.79
2019-01-26T02:32:03.154Z,37.14
2019-01-26T02:33:03.726Z,38.86
2019-01-26T02:34:03.272Z,40.84
2019-01-26T02:35:03.319Z,44.38
2019-01-26T02:36:03.395Z,40.34
2019-01-26T02:37:02.943Z,40.97
2019-01-26T02:38:03.510Z,36.83
2019-01-26T02:39:03.142Z,40.29
2019-01-26T02:40:03.295Z,37.81
2019-01-26T02:41:03.086Z,32.86
2019-01-26T02:42:02.791Z,32.86
2019-01-26T02:43:03.397Z,37.04
2019-01-26T02:44:03.419Z,37.39
2019-01-26T02:45:03.083Z,37.39
2019-01-26T02:46:04.021Z,39.62
2019-01-26T02:47:03.108Z,32.02
2019-01-26T02:48:03.098Z,33.93
2019-01-26T02:49:02.776Z,30.56
2019-01-26T02:50:03.137Z,38.41
2019-01-26T02:51:01.867Z,29.86
2019-01-26T02:52:03.101Z,35.09
2019-01-26T02:53:03.277Z,36.39
2019-01-26T02:54:02.930Z,38.13
2019-01-26T02:55:02.863Z,38.13
2019-01-26T02:56:03.566Z,34.14
2019-01-26T02:57:02.584Z,34.14
2019-01-26T02:58:02.893Z,32.71
2019-01-26T02:59:03.302Z,32.71
2019-01-26T03:00:03.357Z,33.38
2019-01-26T03:01:02.746Z,33.38
2019-01-26T03:02:02.783Z,33.11
2019-01-26T03:03:03.519Z,33.11
2019-01-26T03:04:03.333Z,37.33
2019-01-26T03:05:03.028Z,34.61
2019-01-26T03:06:02.762Z,32.75
2019-01-26T03:07:03.021Z,34.02
2019-01-26T03:08:03.235Z,34.04
2019-01-26T03:09:02.901Z,34.04
2019-01-26T03:10:03.203Z,28.97
2019-01-26T03:11:02.638Z,40.32
2019-01-26T03:14:03.010Z,31.52
2019-01-26T03:15:03.174Z,36.14
2019-01-26T03:16:02.733Z,31.04
2019-01-26T03:17:06.031Z,28.66
2019-01-26T03:18:03.215Z,27.94
2019-01-26T03:19:03.229Z,32.64
2019-01-26T03:20:02.684Z,29.86
2019-01-26T03:21:03.175Z,29.86
2019-01-26T03:22:03.103Z,26.75
2019-01-26T03:23:03.651Z,33.34
2019-01-26T03:24:02.668Z,26.81
2019-01-26T03:25:03.197Z,25.44
2019-01-26T03:26:03.139Z,26.58
2019-01-26T03:27:02.882Z,26.58
2019-01-26T03:28:02.674Z,27.74
2019-01-26T03:29:03.139Z,27.74
2019-01-26T03:30:02.968Z,28.02
2019-01-26T03:31:03.606Z,24.53
2019-01-26T03:32:02.886Z,23.09
2019-01-26T03:33:02.867Z,25.48
2019-01-26T03:34:02.719Z,27.95
2019-01-26T03:35:03.156Z,22.3
2019-01-26T03:36:03.327Z,22.3
2019-01-26T03:37:03.458Z,25.09
2019-01-26T03:38:02.738Z,25.09
2019-01-26T03:39:03.219Z,28.02
2019-01-26T03:40:03.520Z,23.84
2019-01-26T03:41:02.855Z,23.84
2019-01-26T03:42:03.434Z,25.35
2019-01-26T03:43:03.362Z,21.07
2019-01-26T03:44:03.191Z,23.28
2019-01-26T03:45:04.046Z,29.7
2019-01-26T03:46:03.288Z,27.61
2019-01-26T03:47:03.408Z,27.61
2019-01-26T03:48:02.837Z,26.46
2019-01-26T03:49:03.603Z,26.28
2019-01-26T03:50:03.262Z,31.59
2019-01-26T03:51:02.627Z,31.59
2019-01-26T03:52:03.265Z,29.49
2019-01-26T03:53:02.724Z,29.49
2019-01-26T03:54:02.781Z,29.04
2019-01-26T03:55:02.925Z,27.18
2019-01-26T03:56:03.059Z,25.14
2019-01-26T03:57:02.866Z,26.91
2019-01-26T03:58:02.014Z,27.79
2019-01-26T03:59:03.358Z,22.27
2019-01-26T04:00:03.177Z,24.52
2019-01-26T04:01:03.669Z,20.2
2019-01-26T04:02:03.434Z,28.64
2019-01-26T04:03:02.794Z,23.82
2019-01-26T04:04:02.701Z,21.25
2019-01-26T04:05:03.263Z,22.24
2019-01-26T04:06:03.443Z,26.48
2019-01-26T04:07:03.513Z,23.74
2019-01-26T04:08:02.712Z,24.88
2019-01-26T04:09:03.335Z,21.54
2019-01-26T04:10:02.911Z,22.42
2019-01-26T04:11:03.396Z,32.25
2019-01-26T04:12:02.988Z,19.94
2019-01-26T04:13:02.646Z,21.03
2019-01-26T04:14:03.439Z,24.39
2019-01-26T04:15:02.964Z,24.39
2019-01-26T04:16:03.243Z,17.98
2019-01-26T04:17:03.502Z,23.35
2019-01-26T04:18:03.241Z,23.35
2019-01-26T04:19:03.322Z,21.46
2019-01-26T04:20:02.920Z,23.54
2019-01-26T04:21:02.613Z,23.54
2019-01-26T04:22:02.435Z,22.33
2019-01-26T04:23:02.105Z,25.42
2019-01-26T04:24:03.200Z,25.42
2019-01-26T04:25:03.127Z,25.42
2019-01-26T04:26:01.873Z,24.01
2019-01-26T04:27:02.864Z,24.01
2019-01-26T04:28:02.704Z,24.01
2019-01-26T04:29:02.801Z,20.19
2019-01-26T04:30:02.283Z,22.8
2019-01-26T04:31:03.584Z,25.02
2019-01-26T04:32:03.424Z,21.15
2019-01-26T04:33:02.783Z,24.74
2019-01-26T04:34:02.701Z,20.27
2019-01-26T04:35:02.944Z,24.84
2019-01-26T04:36:03.361Z,24.84
2019-01-26T04:37:03.433Z,25.74
2019-01-26T04:38:03.883Z,25.74
2019-01-26T04:39:02.609Z,22.46
2019-01-26T04:40:03.345Z,26.36
2019-01-26T04:41:03.442Z,26.36
2019-01-26T04:42:02.737Z,20.82
2019-01-26T04:43:03.283Z,20.08
2019-01-26T04:44:03.635Z,21.71
2019-01-26T04:45:03.033Z,21.71
2019-01-26T04:46:03.146Z,23.9
2019-01-26T04:47:02.814Z,23.49
2019-01-26T04:48:03.424Z,23.83
2019-01-26T04:49:02.306Z,21.14
2019-01-26T04:50:02.868Z,21.14
2019-01-26T04:51:03.599Z,23.96
2019-01-26T04:52:02.795Z,23.39
2019-01-26T04:53:03.537Z,18.06
2019-01-26T04:54:02.755Z,25.24
2019-01-26T04:55:03.457Z,24.27
2019-01-26T04:56:03.408Z,18.64
2019-01-26T04:57:03.519Z,27.06
2019-01-26T04:58:02.976Z,30.6
2019-01-26T04:59:02.737Z,17.16
2019-01-26T05:00:03.264Z,17.16
2019-01-26T05:01:03.343Z,19.08
2019-01-26T05:02:03.112Z,19.08
2019-01-26T05:03:02.929Z,23.05
2019-01-26T05:04:03.690Z,23.05
2019-01-26T05:05:03.484Z,23.84
2019-01-26T05:06:02.794Z,23.84
2019-01-26T05:07:03.462Z,19.46
2019-01-26T05:08:03.519Z,19.12
2019-01-26T05:09:03.373Z,20.38
2019-01-26T05:10:03.517Z,21.1
2019-01-26T05:11:03.171Z,17.02
2019-01-26T05:12:02.699Z,23.14
2019-01-26T05:13:03.093Z,23.14
2019-01-26T05:14:03.010Z,23.14
2019-01-26T05:15:02.924Z,15.47
2019-01-26T05:16:02.884Z,15.47
2019-01-26T05:17:02.731Z,17.05
2019-01-26T05:18:02.828Z,19.13
2019-01-26T05:19:03.108Z,16.71
2019-01-26T05:20:03.116Z,27.94
2019-01-26T05:21:03.361Z,16.88
2019-01-26T05:22:03.511Z,22.49
2019-01-26T05:23:03.333Z,18.58
2019-01-26T05:24:02.883Z,18.58
2019-01-26T05:25:02.724Z,15.49
2019-01-26T05:26:03.621Z,15.49
2019-01-26T05:27:03.053Z,19.32
2019-01-26T05:28:03.624Z,19.32
2019-01-26T05:29:02.826Z,17.22
2019-01-26T05:30:03.536Z,17.22
2019-01-26T05:31:03.309Z,15.69
2019-01-26T05:32:02.750Z,17.38
2019-01-26T05:33:03.253Z,15.48
2019-01-26T05:34:02.878Z,20.44
2019-01-26T05:35:02.467Z,22.19
2019-01-26T05:36:02.734Z,23.46
2019-01-26T05:37:02.875Z,18.42
2019-01-26T05:38:03.313Z,20.68
2019-01-26T05:39:03.181Z,19.84
2019-01-26T05:40:03.036Z,18.7
2019-01-26T05:41:02.849Z,19.12
2019-01-26T05:42:02.981Z,17.6
2019-01-26T05:43:03.502Z,16.84
2019-01-26T05:44:03.209Z,17.25
2019-01-26T05:45:03.636Z,13.54
2019-01-26T05:46:03.419Z,16.24
2019-01-26T05:47:02.972Z,13.81
2019-01-26T05:48:03.565Z,13.81
2019-01-26T05:49:03.663Z,13.02
2019-01-26T05:50:03.444Z,13.02
2019-01-26T05:51:03.500Z,12.8
2019-01-26T05:52:03.521Z,12.8
2019-01-26T05:53:03.598Z,14.57
2019-01-26T05:54:03.084Z,14.57
2019-01-26T05:55:03.078Z,13.41
2019-01-26T05:56:03.565Z,13.19
2019-01-26T05:57:02.816Z,14.29
2019-01-26T05:58:03.597Z,14.29
2019-01-26T05:59:03.141Z,16.61
2019-01-26T06:00:02.799Z,11.53
2019-01-26T06:01:03.655Z,11.53
2019-01-26T06:02:02.831Z,12.58
2019-01-26T06:03:03.226Z,12.58
2019-01-26T06:04:01.506Z,12.35
2019-01-26T06:05:02.504Z,16.1
2019-01-26T06:06:03.210Z,13.63
2019-01-26T06:07:03.004Z,14.79
2019-01-26T06:08:02.985Z,13.11
2019-01-26T06:09:02.821Z,11.96
2019-01-26T06:10:03.042Z,11.11
2019-01-26T06:11:03.570Z,14.6
2019-01-26T06:12:03.589Z,14.1
2019-01-26T06:13:03.335Z,15.48
2019-01-26T06:14:03.678Z,15.62
2019-01-26T06:15:03.180Z,13.25
2019-01-26T06:16:02.878Z,13.25
2019-01-26T06:17:03.572Z,12.66
2019-01-26T06:18:03.321Z,12.66
2019-01-26T06:19:03.304Z,13.55
2019-01-26T06:20:03.082Z,15.36
2019-01-26T06:21:03.240Z,11.89
2019-01-26T06:22:03.327Z,11.89
2019-01-26T06:23:02.924Z,12.54
2019-01-26T06:24:02.811Z,15.92
2019-01-26T06:25:03.470Z,13.38
2019-01-26T06:26:03.570Z,12.39
2019-01-26T06:27:03.425Z,15.11
2019-01-26T06:28:03.078Z,13.43
2019-01-26T06:29:02.697Z,16.5
2019-01-26T06:30:03.506Z,16.29
2019-01-26T06:31:02.179Z,14.13
2019-01-26T06:32:03.079Z,13.81
2019-01-26T06:33:03.233Z,17.56
2019-01-26T06:34:03.768Z,15
2019-01-26T06:35:02.694Z,15.87
2019-01-26T06:36:03.778Z,15.94
2019-01-26T06:37:03.361Z,14.71
2019-01-26T06:38:03.509Z,14.64
2019-01-26T06:39:03.467Z,13.98
2019-01-26T06:40:02.883Z,13.98
2019-01-26T06:41:03.462Z,17.51
2019-01-26T06:42:02.499Z,13.62
2019-01-26T06:43:02.798Z,14.28
2019-01-26T06:44:03.203Z,15.99
2019-01-26T06:45:02.893Z,15.36
2019-01-26T06:46:02.416Z,15.1
2019-01-26T06:47:03.260Z,13.04
2019-01-26T06:48:02.997Z,15.99
2019-01-26T06:49:03.164Z,15.99
2019-01-26T06:50:02.789Z,16.07
2019-01-26T06:51:03.079Z,15.76
2019-01-26T06:52:03.669Z,15.76
2019-01-26T06:53:03.075Z,17.18
2019-01-26T06:54:03.595Z,20.48
2019-01-26T06:55:02.979Z,19.88
2019-01-26T06:56:02.887Z,17.96
2019-01-26T06:57:03.329Z,17.96
2019-01-26T06:58:02.984Z,14.5
2019-01-26T06:59:02.844Z,12.14
2019-01-26T07:00:03.536Z,15.2
2019-01-26T07:01:02.941Z,15.2
2019-01-26T07:02:03.594Z,15.31
2019-01-26T07:03:03.108Z,15.31
2019-01-26T07:04:03.366Z,17.62
2019-01-26T07:05:03.691Z,17.62
2019-01-26T07:06:03.678Z,15.46
2019-01-26T07:07:02.753Z,14.54
2019-01-26T07:08:03.254Z,14.54
2019-01-26T07:09:03.110Z,14.39
2019-01-26T07:10:02.164Z,13.95
2019-01-26T07:11:03.199Z,13.95
2019-01-26T07:12:03.146Z,14.35
2019-01-26T07:13:02.928Z,17.05
2019-01-26T07:14:02.728Z,12.76
2019-01-26T07:15:03.232Z,12.76
2019-01-26T07:16:02.987Z,15.57
2019-01-26T07:17:03.745Z,14.24
2019-01-26T07:18:09.312Z,13.83
2019-01-26T07:19:02.725Z,12.91
2019-01-26T07:20:03.118Z,12.91
2019-01-26T07:21:03.603Z,15.68
2019-01-26T07:22:03.078Z,14.46
2019-01-26T07:23:03.322Z,13.37
2019-01-26T07:24:02.927Z,16.26
2019-01-26T07:25:03.166Z,16.26
2019-01-26T07:26:03.157Z,15.36
2019-01-26T07:27:02.819Z,15.36
2019-01-26T07:28:03.083Z,16.28
2019-01-26T07:29:02.577Z,16.28
2019-01-26T07:30:03.217Z,19.61
2019-01-26T07:31:03.410Z,17.44
2019-01-26T07:32:03.002Z,15.54
2019-01-26T07:33:01.788Z,17.22
2019-01-26T07:34:01.924Z,18.3
2019-01-26T07:35:03.240Z,18.3
2019-01-26T07:36:03.190Z,13.86
2019-01-26T07:37:03.387Z,13.86
2019-01-26T07:38:03.481Z,15.22
2019-01-26T07:39:03.174Z,15.97
2019-01-26T07:40:03.555Z,16.88
2019-01-26T07:41:03.021Z,16.88
2019-01-26T07:42:02.741Z,16.94
2019-01-26T07:43:03.581Z,16.94
2019-01-26T07:44:02.651Z,17.18
2019-01-26T07:45:03.463Z,15.22
2019-01-26T07:46:03.349Z,15.22
2019-01-26T07:47:02.817Z,17.32
2019-01-26T07:48:02.659Z,14.99
2019-01-26T07:49:03.436Z,14.99
2019-01-26T07:50:03.490Z,13.96
2019-01-26T07:51:03.364Z,13.96
2019-01-26T07:52:03.013Z,17.69
2019-01-26T07:53:03.492Z,17.69
2019-01-26T07:54:02.542Z,19.38
2019-01-26T07:55:03.106Z,19.16
2019-01-26T07:56:03.061Z,14.17
2019-01-26T07:57:03.494Z,14.17
2019-01-26T07:58:01.895Z,15.61
2019-01-26T07:59:01.658Z,14.23
2019-01-26T08:00:02.827Z,16.76
2019-01-26T08:01:03.566Z,18.95
2019-01-26T08:02:02.818Z,17.84
2019-01-26T08:03:03.229Z,17.84
2019-01-26T08:04:02.862Z,17.44
2019-01-26T08:05:02.656Z,17.26
2019-01-26T08:06:02.739Z,18.29
2019-01-26T08:07:02.898Z,18.29
2019-01-26T08:08:03.557Z,16.56
2019-01-26T08:09:03.281Z,16.56
2019-01-26T08:10:03.303Z,18.48
2019-01-26T08:11:03.284Z,16.85
2019-01-26T08:12:03.298Z,16.11
2019-01-26T08:13:02.902Z,16.11
2019-01-26T08:14:03.247Z,14.43
2019-01-26T08:15:03.128Z,14.43
2019-01-26T08:16:03.480Z,15.14
2019-01-26T08:17:03.200Z,15.14
2019-01-26T08:18:03.061Z,16.75
2019-01-26T08:19:02.566Z,16.44
2019-01-26T08:20:03.113Z,16.42
2019-01-26T08:21:03.603Z,16.67
2019-01-26T08:22:02.319Z,19.75
2019-01-26T08:23:03.759Z,14.7
2019-01-26T08:24:02.922Z,14.85
2019-01-26T08:25:02.880Z,16.28
2019-01-26T08:26:02.508Z,12.42
2019-01-26T08:27:02.701Z,12.42
2019-01-26T08:28:02.591Z,16.89
2019-01-26T08:29:02.990Z,16.89
2019-01-26T08:30:03.286Z,22.95
2019-01-26T08:31:02.848Z,22.95
2019-01-26T08:32:02.626Z,13.3
2019-01-26T08:33:03.427Z,13.3
2019-01-26T08:34:03.724Z,15.47
2019-01-26T08:35:02.902Z,14.22
2019-01-26T08:36:02.612Z,15.4
2019-01-26T08:37:03.214Z,15.4
2019-01-26T08:38:03.299Z,20.7
2019-01-26T08:39:03.003Z,12.12
2019-01-26T08:40:03.098Z,14.99
2019-01-26T08:41:03.903Z,14.99
2019-01-26T08:42:02.967Z,15.59
2019-01-26T08:43:02.890Z,14.21
2019-01-26T08:44:03.434Z,16.96
2019-01-26T08:45:02.117Z,15.43
2019-01-26T08:46:03.632Z,15.63
2019-01-26T08:47:02.902Z,15.08
2019-01-26T08:48:02.873Z,13.51
2019-01-26T08:49:03.509Z,16.47
2019-01-26T08:50:03.142Z,16.14
2019-01-26T08:51:03.232Z,14.02
2019-01-26T08:52:03.258Z,14.44
2019-01-26T08:53:03.650Z,19.24
2019-01-26T08:54:03.247Z,23.43
2019-01-26T08:55:02.924Z,23.43
2019-01-26T08:56:02.741Z,19.85
2019-01-26T08:57:02.761Z,17.11
2019-01-26T08:58:02.946Z,21.91
2019-01-26T08:59:03.453Z,21.91
2019-01-26T09:00:03.440Z,14.4
2019-01-26T09:01:03.071Z,14.4
2019-01-26T09:02:03.402Z,16.34
2019-01-26T09:03:02.928Z,22.45
2019-01-26T09:04:02.759Z,15.17
2019-01-26T09:05:03.103Z,15.17
2019-01-26T09:06:03.294Z,14.59
2019-01-26T09:07:03.632Z,15.56
2019-01-26T09:08:02.790Z,17.02
2019-01-26T09:09:03.402Z,17.02
2019-01-26T09:10:02.974Z,13.69
2019-01-26T09:11:03.635Z,14.39
2019-01-26T09:12:02.277Z,15.04
2019-01-26T09:13:03.455Z,16.45
2019-01-26T09:14:02.297Z,14.42
2019-01-26T09:15:03.369Z,14.42
2019-01-26T09:16:03.603Z,17.91
2019-01-26T09:17:03.461Z,17.91
2019-01-26T09:18:02.767Z,13.64
2019-01-26T09:19:03.192Z,13.64
2019-01-26T09:20:03.115Z,16.58
2019-01-26T09:21:02.964Z,16.58
2019-01-26T09:22:02.721Z,21.72
2019-01-26T09:23:03.154Z,16.85
2019-01-26T09:24:02.748Z,16.85
2019-01-26T09:26:03.348Z,23.16
2019-01-26T09:27:02.924Z,16.98
2019-01-26T09:28:03.279Z,22.31
2019-01-26T09:29:03.184Z,22.31
2019-01-26T09:30:03.282Z,17.74
2019-01-26T09:31:02.890Z,16.7
2019-01-26T09:32:02.233Z,15.5
2019-01-26T09:33:03.476Z,15.5
2019-01-26T09:34:03.009Z,12.1
2019-01-26T09:35:02.168Z,16.41
2019-01-26T09:36:01.811Z,18.18
2019-01-26T09:37:02.481Z,16.6
2019-01-26T09:38:02.758Z,16.11
2019-01-26T09:39:03.020Z,18.47
2019-01-26T09:40:03.099Z,18.47
2019-01-26T09:41:02.715Z,20.8
2019-01-26T09:42:02.974Z,17.93
2019-01-26T09:43:03.454Z,17.93
2019-01-26T09:44:02.991Z,17.02
2019-01-26T09:45:02.908Z,17.02
2019-01-26T09:46:03.163Z,15.81
2019-01-26T09:47:03.266Z,15.81
2019-01-26T09:48:03.535Z,16.8
2019-01-26T09:49:03.215Z,17.28
2019-01-26T09:50:03.141Z,16.29
2019-01-26T09:51:03.744Z,17.88
2019-01-26T09:52:03.120Z,18.78
2019-01-26T09:53:03.050Z,18.78
2019-01-26T09:54:03.269Z,16.28
2019-01-26T09:55:02.388Z,17.04
2019-01-26T09:56:02.953Z,13.02
2019-01-26T09:57:03.078Z,13.02
2019-01-26T09:58:03.591Z,15.62
2019-01-26T09:59:03.082Z,15.62
2019-01-26T10:00:03.198Z,17.69
2019-01-26T10:01:03.131Z,11.33
2019-01-26T10:02:03.000Z,15.98
2019-01-26T10:03:03.285Z,13.37
2019-01-26T10:04:02.886Z,13.37
2019-01-26T10:05:03.380Z,16.14
2019-01-26T10:06:03.608Z,12.06
2019-01-26T10:07:02.661Z,13.76
2019-01-26T10:08:02.144Z,14.64
2019-01-26T10:09:02.817Z,14.37
2019-01-26T10:10:03.158Z,13.59
2019-01-26T10:11:03.548Z,12.8
2019-01-26T10:12:02.123Z,13.34
2019-01-26T10:13:03.193Z,13.34
2019-01-26T10:14:03.046Z,12.61
2019-01-26T10:15:02.840Z,14.38
2019-01-26T10:16:03.384Z,14.31
2019-01-26T10:17:03.203Z,12.58
2019-01-26T10:18:02.904Z,12.58
2019-01-26T10:19:03.580Z,13.75
2019-01-26T10:20:03.379Z,13.75
2019-01-26T10:21:03.418Z,13.42
2019-01-26T10:22:03.278Z,12.21
2019-01-26T10:23:03.051Z,15.21
2019-01-26T10:24:03.209Z,15.21
2019-01-26T10:25:02.942Z,15.16
2019-01-26T10:26:03.446Z,15.2
2019-01-26T10:27:03.298Z,14.28
2019-01-26T10:28:02.882Z,14.28
2019-01-26T10:29:03.397Z,15.56
2019-01-26T10:30:02.670Z,15.78
2019-01-26T10:31:03.027Z,17.27
2019-01-26T10:32:03.602Z,11.39
2019-01-26T10:33:03.504Z,11.61
2019-01-26T10:34:03.508Z,12.09
2019-01-26T10:35:03.403Z,12.48
2019-01-26T10:36:02.622Z,12.48
2019-01-26T10:37:02.819Z,13.85
2019-01-26T10:38:03.128Z,15.89
2019-01-26T10:39:03.494Z,11.43
2019-01-26T10:40:02.951Z,10.79
2019-01-26T10:41:02.713Z,13.38
2019-01-26T10:42:03.266Z,13.38
2019-01-26T10:43:03.022Z,10.8
2019-01-26T10:44:03.746Z,12.31
2019-01-26T10:45:02.654Z,12.31
2019-01-26T10:46:03.614Z,11.71
2019-01-26T10:47:02.827Z,12.31
2019-01-26T10:48:02.816Z,12.31
2019-01-26T10:49:03.038Z,10.67
2019-01-26T10:50:03.302Z,13.89
2019-01-26T10:51:02.634Z,13.89
2019-01-26T10:52:02.564Z,14.92
2019-01-26T10:53:02.170Z,13.26
2019-01-26T10:54:02.397Z,13.26
2019-01-26T10:55:02.422Z,11.58
2019-01-26T10:56:03.078Z,12.86
2019-01-26T10:57:02.576Z,13.95
2019-01-26T10:58:03.058Z,12.57
2019-01-26T10:59:02.730Z,18.09
2019-01-26T11:00:03.553Z,12.05
2019-01-26T11:01:03.322Z,12.05
2019-01-26T11:02:03.412Z,10.82
2019-01-26T11:03:03.086Z,10.82
2019-01-26T11:04:02.757Z,14.62
2019-01-26T11:05:03.274Z,13.65
2019-01-26T11:06:02.968Z,13.65
2019-01-26T11:07:03.388Z,11.56
2019-01-26T11:08:02.872Z,11.56
2019-01-26T11:09:02.949Z,13.68
2019-01-26T11:10:03.173Z,13.68
2019-01-26T11:11:02.932Z,12.74
2019-01-26T11:12:02.875Z,12.74
2019-01-26T11:13:03.026Z,13.46
2019-01-26T11:14:03.342Z,14.12
2019-01-26T11:15:02.763Z,12.59
2019-01-26T11:16:02.664Z,12.59
2019-01-26T11:17:03.286Z,9.95
2019-01-26T11:18:03.253Z,10.39
2019-01-26T11:19:07.796Z,15.16
2019-01-26T11:20:03.631Z,12.77
2019-01-26T11:21:03.057Z,11.4
2019-01-26T11:22:02.854Z,12.79
2019-01-26T11:23:03.012Z,11.56
2019-01-26T11:24:01.940Z,13.66
2019-01-26T11:25:02.411Z,15.04
2019-01-26T11:26:03.499Z,15.22
2019-01-26T11:27:03.236Z,11.89
2019-01-26T11:28:03.391Z,13.59
2019-01-26T11:29:03.232Z,13.59
2019-01-26T11:30:02.934Z,12.73
2019-01-26T11:31:03.289Z,12.69
2019-01-26T11:32:03.364Z,11.56
2019-01-26T11:33:02.671Z,10.92
2019-01-26T11:34:02.690Z,10.92
2019-01-26T11:35:02.763Z,10.82
2019-01-26T11:36:03.401Z,10.82
2019-01-26T11:37:03.391Z,10.86
2019-01-26T11:38:03.046Z,11.98
2019-01-26T11:39:03.341Z,10.62
2019-01-26T11:40:03.497Z,10.62
2019-01-26T11:41:03.259Z,10.84
2019-01-26T11:42:03.287Z,13.34
2019-01-26T11:43:03.503Z,13.34
2019-01-26T11:44:03.272Z,13.98
2019-01-26T11:45:03.427Z,13.94
2019-01-26T11:46:02.832Z,12.59
2019-01-26T11:47:02.970Z,13.51
2019-01-26T11:48:03.314Z,13.51
2019-01-26T11:49:02.051Z,10.39
2019-01-26T11:50:03.230Z,10.78
2019-01-26T11:51:03.103Z,11.38
2019-01-26T11:52:02.840Z,18.06
2019-01-26T11:53:03.010Z,11.81
2019-01-26T11:54:02.852Z,12.48
2019-01-26T11:55:02.749Z,15.94
2019-01-26T11:56:03.022Z,14.45
2019-01-26T11:57:02.705Z,14.66
2019-01-26T11:58:03.027Z,14.66
2019-01-26T11:59:03.086Z,23.29
2019-01-26T12:00:03.471Z,23.29
2019-01-26T12:01:03.311Z,12.16
2019-01-26T12:02:03.220Z,11.17
2019-01-26T12:03:03.600Z,10.9
2019-01-26T12:04:03.044Z,10.9
2019-01-26T12:05:02.986Z,12.45
2019-01-26T12:06:03.531Z,10.56
2019-01-26T12:07:03.121Z,10.65
2019-01-26T12:08:03.104Z,10.65
2019-01-26T12:09:02.956Z,10.22
2019-01-26T12:10:03.481Z,14.03
2019-01-26T12:11:03.609Z,14.03
2019-01-26T12:12:02.938Z,16.24
2019-01-26T12:13:03.610Z,8.56
2019-01-26T12:14:01.730Z,13.27
2019-01-26T12:15:02.828Z,12.99
2019-01-26T12:16:03.525Z,12.99
2019-01-26T12:17:03.398Z,10.26
2019-01-26T12:18:02.712Z,10.26
2019-01-26T12:19:03.130Z,10.33
2019-01-26T12:20:03.069Z,10.33
2019-01-26T12:21:03.727Z,11.45
2019-01-26T12:22:03.299Z,11.45
2019-01-26T12:23:03.527Z,13.78
2019-01-26T12:24:03.168Z,13.78
2019-01-26T12:25:03.607Z,11.88
2019-01-26T12:26:02.935Z,11.88
2019-01-26T12:27:03.398Z,8.72
2019-01-26T12:28:02.778Z,8.72
2019-01-26T12:29:02.868Z,10.34
2019-01-26T12:30:02.770Z,10.41
2019-01-26T12:31:02.909Z,10.41
2019-01-26T12:32:03.704Z,9.39
2019-01-26T12:33:02.350Z,10.36
2019-01-26T12:34:01.985Z,9.31
2019-01-26T12:35:03.266Z,9.79
2019-01-26T12:36:01.858Z,11.79
2019-01-26T12:37:01.915Z,10.82
2019-01-26T12:38:03.375Z,10.82
2019-01-26T12:39:03.037Z,9.31
2019-01-26T12:40:03.442Z,9.84
2019-01-26T12:41:03.499Z,10.57
2019-01-26T12:42:03.538Z,6.61
2019-01-26T12:43:03.456Z,6.61
2019-01-26T12:44:02.900Z,11.54
2019-01-26T12:45:03.854Z,8.28
2019-01-26T12:46:03.596Z,8.96
2019-01-26T12:47:02.749Z,8.96
2019-01-26T12:48:03.113Z,7.56
2019-01-26T12:49:03.502Z,9.58
2019-01-26T12:50:03.166Z,8.89
2019-01-26T12:51:02.763Z,8.89
2019-01-26T12:52:03.311Z,7.47
2019-01-26T12:53:03.178Z,13.42
2019-01-26T12:54:02.903Z,11.86
2019-01-26T12:55:03.007Z,9.91
2019-01-26T12:56:02.974Z,12.16
2019-01-26T12:57:02.698Z,12.09
2019-01-26T12:58:03.692Z,12.09
2019-01-26T12:59:02.680Z,10.41